sensor_id;sensor_type;location;lat;lon;timestamp;temperature;humidity
68746;SHT31;55731;45.456;11.064;2022-11-11T00:01:56;12.64;74.51
68746;SHT31;55731;45.456;11.064;2022-11-11T00:04:51;12.65;74.40
68746;SHT31;55731;45.456;11.064;2022-11-11T00:07:46;12.64;74.42
68746;SHT31;55731;45.456;11.064;2022-11-11T00:10:45;12.63;74.41
68746;SHT31;55731;45.456;11.064;2022-11-11T00:13:40;12.63;74.48
68746;SHT31;55731;45.456;11.064;2022-11-11T00:16:35;12.62;74.48
68746;SHT31;55731;45.456;11.064;2022-11-11T00:19:47;12.62;74.34
68746;SHT31;55731;45.456;11.064;2022-11-11T00:22:59;12.62;74.24
68746;SHT31;55731;45.456;11.064;2022-11-11T00:26:12;12.62;74.30
68746;SHT31;55731;45.456;11.064;2022-11-11T00:29:27;12.61;74.27
68746;SHT31;55731;45.456;11.064;2022-11-11T00:32:22;12.61;74.22
68746;SHT31;55731;45.456;11.064;2022-11-11T00:35:19;12.58;74.18
68746;SHT31;55731;45.456;11.064;2022-11-11T00:38:31;12.60;74.12
68746;SHT31;55731;45.456;11.064;2022-11-11T00:41:36;12.61;74.10
68746;SHT31;55731;45.456;11.064;2022-11-11T00:44:31;12.63;74.04
68746;SHT31;55731;45.456;11.064;2022-11-11T00:47:25;12.61;74.06
68746;SHT31;55731;45.456;11.064;2022-11-11T00:50:37;12.59;74.11
68746;SHT31;55731;45.456;11.064;2022-11-11T00:53:47;12.57;74.12
68746;SHT31;55731;45.456;11.064;2022-11-11T00:56:42;12.55;74.09
68746;SHT31;55731;45.456;11.064;2022-11-11T00:59:37;12.57;74.05
68746;SHT31;55731;45.456;11.064;2022-11-11T01:02:33;12.60;73.92
68746;SHT31;55731;45.456;11.064;2022-11-11T01:05:29;12.61;73.81
68746;SHT31;55731;45.456;11.064;2022-11-11T01:08:25;12.62;73.72
68746;SHT31;55731;45.456;11.064;2022-11-11T01:11:20;12.63;73.80
68746;SHT31;55731;45.456;11.064;2022-11-11T01:14:15;12.63;73.81
68746;SHT31;55731;45.456;11.064;2022-11-11T01:17:10;12.61;73.85
68746;SHT31;55731;45.456;11.064;2022-11-11T01:20:06;12.64;73.77
68746;SHT31;55731;45.456;11.064;2022-11-11T01:23:04;12.67;73.70
68746;SHT31;55731;45.456;11.064;2022-11-11T01:26:03;12.66;73.66
68746;SHT31;55731;45.456;11.064;2022-11-11T01:28:59;12.64;73.70
68746;SHT31;55731;45.456;11.064;2022-11-11T01:31:54;12.63;73.71
68746;SHT31;55731;45.456;11.064;2022-11-11T01:34:49;12.61;73.71
68746;SHT31;55731;45.456;11.064;2022-11-11T01:37:43;12.59;73.76
68746;SHT31;55731;45.456;11.064;2022-11-11T01:40:41;12.60;73.80
68746;SHT31;55731;45.456;11.064;2022-11-11T01:43:37;12.62;73.72
68746;SHT31;55731;45.456;11.064;2022-11-11T01:46:34;12.62;73.70
68746;SHT31;55731;45.456;11.064;2022-11-11T01:49:35;12.62;73.60
68746;SHT31;55731;45.456;11.064;2022-11-11T01:52:39;12.63;73.51
68746;SHT31;55731;45.456;11.064;2022-11-11T01:55:36;12.64;73.49
68746;SHT31;55731;45.456;11.064;2022-11-11T01:58:31;12.64;73.55
68746;SHT31;55731;45.456;11.064;2022-11-11T02:01:27;12.65;73.58
68746;SHT31;55731;45.456;11.064;2022-11-11T02:04:23;12.67;73.50
68746;SHT31;55731;45.456;11.064;2022-11-11T02:07:35;12.67;73.45
68746;SHT31;55731;45.456;11.064;2022-11-11T02:10:32;12.66;73.49
68746;SHT31;55731;45.456;11.064;2022-11-11T02:13:30;12.65;73.56
68746;SHT31;55731;45.456;11.064;2022-11-11T02:16:47;12.62;73.65
68746;SHT31;55731;45.456;11.064;2022-11-11T02:19:45;12.60;73.70
68746;SHT31;55731;45.456;11.064;2022-11-11T02:22:47;12.58;73.60
68746;SHT31;55731;45.456;11.064;2022-11-11T02:25:50;12.61;73.58
68746;SHT31;55731;45.456;11.064;2022-11-11T02:28:48;12.63;73.41
68746;SHT31;55731;45.456;11.064;2022-11-11T02:31:45;12.63;73.42
68746;SHT31;55731;45.456;11.064;2022-11-11T02:34:41;12.62;73.48
68746;SHT31;55731;45.456;11.064;2022-11-11T02:37:36;12.61;73.51
68746;SHT31;55731;45.456;11.064;2022-11-11T02:40:36;12.59;73.62
68746;SHT31;55731;45.456;11.064;2022-11-11T02:43:47;12.57;73.73
68746;SHT31;55731;45.456;11.064;2022-11-11T02:46:44;12.55;73.75
68746;SHT31;55731;45.456;11.064;2022-11-11T02:49:39;12.56;73.75
68746;SHT31;55731;45.456;11.064;2022-11-11T02:52:34;12.61;73.75
68746;SHT31;55731;45.456;11.064;2022-11-11T02:55:28;12.65;73.63
68746;SHT31;55731;45.456;11.064;2022-11-11T02:58:23;12.65;73.59
68746;SHT31;55731;45.456;11.064;2022-11-11T03:01:18;12.62;73.55
68746;SHT31;55731;45.456;11.064;2022-11-11T03:04:16;12.61;73.63
68746;SHT31;55731;45.456;11.064;2022-11-11T03:07:11;12.58;73.60
68746;SHT31;55731;45.456;11.064;2022-11-11T03:10:07;12.60;73.61
68746;SHT31;55731;45.456;11.064;2022-11-11T03:13:03;12.62;73.56
68746;SHT31;55731;45.456;11.064;2022-11-11T03:15:58;12.61;73.52
68746;SHT31;55731;45.456;11.064;2022-11-11T03:19:14;12.61;73.57
68746;SHT31;55731;45.456;11.064;2022-11-11T03:22:08;12.60;73.42
68746;SHT31;55731;45.456;11.064;2022-11-11T03:25:23;12.58;73.41
68746;SHT31;55731;45.456;11.064;2022-11-11T03:28:27;12.54;73.44
68746;SHT31;55731;45.456;11.064;2022-11-11T03:31:22;12.52;73.49
68746;SHT31;55731;45.456;11.064;2022-11-11T03:34:17;12.54;73.43
68746;SHT31;55731;45.456;11.064;2022-11-11T03:37:11;12.55;73.46
68746;SHT31;55731;45.456;11.064;2022-11-11T03:40:23;12.57;73.49
68746;SHT31;55731;45.456;11.064;2022-11-11T03:43:19;12.57;73.49
68746;SHT31;55731;45.456;11.064;2022-11-11T03:46:14;12.58;73.38
68746;SHT31;55731;45.456;11.064;2022-11-11T03:49:09;12.57;73.22
68746;SHT31;55731;45.456;11.064;2022-11-11T03:52:03;12.55;73.29
68746;SHT31;55731;45.456;11.064;2022-11-11T03:55:00;12.53;73.24
68746;SHT31;55731;45.456;11.064;2022-11-11T03:57:57;12.52;73.24
68746;SHT31;55731;45.456;11.064;2022-11-11T04:00:51;12.54;73.21
68746;SHT31;55731;45.456;11.064;2022-11-11T04:03:46;12.56;73.14
68746;SHT31;55731;45.456;11.064;2022-11-11T04:06:54;12.55;73.10
68746;SHT31;55731;45.456;11.064;2022-11-11T04:10:07;12.52;73.11
68746;SHT31;55731;45.456;11.064;2022-11-11T04:13:12;12.50;73.13
68746;SHT31;55731;45.456;11.064;2022-11-11T04:16:39;12.49;73.20
68746;SHT31;55731;45.456;11.064;2022-11-11T04:19:33;12.49;73.19
68746;SHT31;55731;45.456;11.064;2022-11-11T04:22:45;12.51;73.14
68746;SHT31;55731;45.456;11.064;2022-11-11T04:25:40;12.51;73.19
68746;SHT31;55731;45.456;11.064;2022-11-11T04:28:40;12.50;73.20
68746;SHT31;55731;45.456;11.064;2022-11-11T04:31:52;12.47;73.20
68746;SHT31;55731;45.456;11.064;2022-11-11T04:35:05;12.43;73.17
68746;SHT31;55731;45.456;11.064;2022-11-11T04:38:02;12.39;73.25
68746;SHT31;55731;45.456;11.064;2022-11-11T04:41:16;12.41;73.24
68746;SHT31;55731;45.456;11.064;2022-11-11T04:44:30;12.43;73.20
68746;SHT31;55731;45.456;11.064;2022-11-11T04:47:52;12.45;73.18
68746;SHT31;55731;45.456;11.064;2022-11-11T04:50:59;12.44;73.10
68746;SHT31;55731;45.456;11.064;2022-11-11T04:53:54;12.41;73.10
68746;SHT31;55731;45.456;11.064;2022-11-11T04:56:50;12.40;73.06
68746;SHT31;55731;45.456;11.064;2022-11-11T04:59:44;12.40;73.13
68746;SHT31;55731;45.456;11.064;2022-11-11T05:02:40;12.40;73.14
68746;SHT31;55731;45.456;11.064;2022-11-11T05:05:52;12.42;73.16
68746;SHT31;55731;45.456;11.064;2022-11-11T05:09:18;12.45;73.15
68746;SHT31;55731;45.456;11.064;2022-11-11T05:12:13;12.47;73.09
68746;SHT31;55731;45.456;11.064;2022-11-11T05:15:08;12.47;72.98
68746;SHT31;55731;45.456;11.064;2022-11-11T05:18:32;12.43;73.10
68746;SHT31;55731;45.456;11.064;2022-11-11T05:21:45;12.41;73.20
68746;SHT31;55731;45.456;11.064;2022-11-11T05:24:42;12.43;73.15
68746;SHT31;55731;45.456;11.064;2022-11-11T05:27:53;12.44;73.09
68746;SHT31;55731;45.456;11.064;2022-11-11T05:30:48;12.45;73.05
68746;SHT31;55731;45.456;11.064;2022-11-11T05:33:43;12.47;73.12
68746;SHT31;55731;45.456;11.064;2022-11-11T05:36:37;12.44;73.08
68746;SHT31;55731;45.456;11.064;2022-11-11T05:39:32;12.40;73.17
68746;SHT31;55731;45.456;11.064;2022-11-11T05:42:29;12.41;73.28
68746;SHT31;55731;45.456;11.064;2022-11-11T05:45:33;12.44;73.21
68746;SHT31;55731;45.456;11.064;2022-11-11T05:48:32;12.49;73.02
68746;SHT31;55731;45.456;11.064;2022-11-11T05:51:47;12.50;72.92
68746;SHT31;55731;45.456;11.064;2022-11-11T05:54:43;12.50;72.91
68746;SHT31;55731;45.456;11.064;2022-11-11T05:57:38;12.49;73.04
68746;SHT31;55731;45.456;11.064;2022-11-11T06:00:36;12.46;73.11
68746;SHT31;55731;45.456;11.064;2022-11-11T06:03:31;12.42;73.22
68746;SHT31;55731;45.456;11.064;2022-11-11T06:06:26;12.40;73.30
68746;SHT31;55731;45.456;11.064;2022-11-11T06:09:21;12.40;73.35
68746;SHT31;55731;45.456;11.064;2022-11-11T06:12:16;12.43;73.31
68746;SHT31;55731;45.456;11.064;2022-11-11T06:18:43;12.43;73.20
68746;SHT31;55731;45.456;11.064;2022-11-11T06:21:38;12.39;73.27
68746;SHT31;55731;45.456;11.064;2022-11-11T06:24:47;12.35;73.39
68746;SHT31;55731;45.456;11.064;2022-11-11T06:28:01;12.34;73.51
68746;SHT31;55731;45.456;11.064;2022-11-11T06:30:57;12.33;73.57
68746;SHT31;55731;45.456;11.064;2022-11-11T06:33:53;12.37;73.51
68746;SHT31;55731;45.456;11.064;2022-11-11T06:36:48;12.43;73.40
68746;SHT31;55731;45.456;11.064;2022-11-11T06:39:44;12.50;73.28
68746;SHT31;55731;45.456;11.064;2022-11-11T06:42:39;12.58;73.19
68746;SHT31;55731;45.456;11.064;2022-11-11T06:45:34;12.70;73.46
68746;SHT31;55731;45.456;11.064;2022-11-11T07:07:02;17.12;66.09
68746;SHT31;55731;45.456;11.064;2022-11-11T07:09:57;15.67;67.35
68746;SHT31;55731;45.456;11.064;2022-11-11T07:12:55;14.58;68.64
68746;SHT31;55731;45.456;11.064;2022-11-11T08:06:02;19.23;62.53
68746;SHT31;55731;45.456;11.064;2022-11-11T08:08:58;17.69;63.69
68746;SHT31;55731;45.456;11.064;2022-11-11T08:26:37;19.22;64.14
68746;SHT31;55731;45.456;11.064;2022-11-11T08:29:33;18.90;63.23
68746;SHT31;55731;45.456;11.064;2022-11-11T08:32:28;18.43;64.21
68746;SHT31;55731;45.456;11.064;2022-11-11T08:35:23;17.98;64.67
68746;SHT31;55731;45.456;11.064;2022-11-11T08:38:19;17.56;65.79
68746;SHT31;55731;45.456;11.064;2022-11-11T08:41:14;17.18;67.04
68746;SHT31;55731;45.456;11.064;2022-11-11T08:44:10;16.97;67.46
68746;SHT31;55731;45.456;11.064;2022-11-11T08:47:06;16.85;67.82
68746;SHT31;55731;45.456;11.064;2022-11-11T08:50:01;16.77;66.83
68746;SHT31;55731;45.456;11.064;2022-11-11T08:52:57;16.74;66.27
68746;SHT31;55731;45.456;11.064;2022-11-11T08:55:55;16.63;66.15
68746;SHT31;55731;45.456;11.064;2022-11-11T08:58:51;16.52;66.56
68746;SHT31;55731;45.456;11.064;2022-11-11T09:01:46;16.45;66.79
68746;SHT31;55731;45.456;11.064;2022-11-11T09:04:40;16.44;66.91
68746;SHT31;55731;45.456;11.064;2022-11-11T09:07:41;16.42;67.06
68746;SHT31;55731;45.456;11.064;2022-11-11T09:10:36;16.38;67.25
68746;SHT31;55731;45.456;11.064;2022-11-11T09:13:31;16.33;67.58
68746;SHT31;55731;45.456;11.064;2022-11-11T09:16:26;16.31;67.72
68746;SHT31;55731;45.456;11.064;2022-11-11T09:19:25;16.32;67.88
68746;SHT31;55731;45.456;11.064;2022-11-11T09:22:20;16.35;67.72
68746;SHT31;55731;45.456;11.064;2022-11-11T09:25:17;16.35;67.64
68746;SHT31;55731;45.456;11.064;2022-11-11T09:28:11;16.41;67.59
68746;SHT31;55731;45.456;11.064;2022-11-11T09:31:06;16.42;67.55
68746;SHT31;55731;45.456;11.064;2022-11-11T09:34:21;16.45;67.23
68746;SHT31;55731;45.456;11.064;2022-11-11T09:37:16;16.47;67.40
68746;SHT31;55731;45.456;11.064;2022-11-11T09:40:13;16.49;67.72
68746;SHT31;55731;45.456;11.064;2022-11-11T09:43:26;16.51;68.01
68746;SHT31;55731;45.456;11.064;2022-11-11T09:46:33;16.50;68.47
68746;SHT31;55731;45.456;11.064;2022-11-11T09:49:36;16.53;68.89
68746;SHT31;55731;45.456;11.064;2022-11-11T09:52:55;16.58;68.44
68746;SHT31;55731;45.456;11.064;2022-11-11T09:55:57;16.60;68.84
68746;SHT31;55731;45.456;11.064;2022-11-11T09:59:18;16.65;68.92
68746;SHT31;55731;45.456;11.064;2022-11-11T10:02:22;16.72;68.31
68746;SHT31;55731;45.456;11.064;2022-11-11T10:05:31;16.70;67.51
68746;SHT31;55731;45.456;11.064;2022-11-11T10:08:34;16.65;67.15
68746;SHT31;55731;45.456;11.064;2022-11-11T10:11:38;16.67;67.41
68746;SHT31;55731;45.456;11.064;2022-11-11T10:14:44;16.70;67.64
68746;SHT31;55731;45.456;11.064;2022-11-11T10:17:42;16.74;66.78
68746;SHT31;55731;45.456;11.064;2022-11-11T10:20:51;16.81;67.44
68746;SHT31;55731;45.456;11.064;2022-11-11T10:23:47;16.87;67.97
68746;SHT31;55731;45.456;11.064;2022-11-11T10:26:44;16.98;67.95
68746;SHT31;55731;45.456;11.064;2022-11-11T10:29:40;17.06;67.29
68746;SHT31;55731;45.456;11.064;2022-11-11T10:32:36;17.11;67.32
68746;SHT31;55731;45.456;11.064;2022-11-11T10:35:31;17.11;66.68
68746;SHT31;55731;45.456;11.064;2022-11-11T10:38:32;17.13;66.49
68746;SHT31;55731;45.456;11.064;2022-11-11T10:41:39;17.17;66.96
68746;SHT31;55731;45.456;11.064;2022-11-11T10:44:38;17.24;67.24
68746;SHT31;55731;45.456;11.064;2022-11-11T10:47:37;17.31;66.92
68746;SHT31;55731;45.456;11.064;2022-11-11T10:50:42;17.37;66.83
68746;SHT31;55731;45.456;11.064;2022-11-11T10:53:40;17.39;66.59
68746;SHT31;55731;45.456;11.064;2022-11-11T10:56:47;17.44;66.70
68746;SHT31;55731;45.456;11.064;2022-11-11T10:59:51;17.50;66.64
68746;SHT31;55731;45.456;11.064;2022-11-11T11:02:53;17.56;66.38
68746;SHT31;55731;45.456;11.064;2022-11-11T11:05:57;17.55;66.38
68746;SHT31;55731;45.456;11.064;2022-11-11T11:09:05;17.56;66.26
68746;SHT31;55731;45.456;11.064;2022-11-11T11:13:40;17.54;66.43
68746;SHT31;55731;45.456;11.064;2022-11-11T11:16:41;17.53;66.41
68746;SHT31;55731;45.456;11.064;2022-11-11T11:19:43;17.52;66.31
68746;SHT31;55731;45.456;11.064;2022-11-11T11:22:59;17.57;66.10
68746;SHT31;55731;45.456;11.064;2022-11-11T11:25:54;17.67;65.95
68746;SHT31;55731;45.456;11.064;2022-11-11T11:28:56;17.76;65.76
68746;SHT31;55731;45.456;11.064;2022-11-11T11:31:53;17.84;65.58
68746;SHT31;55731;45.456;11.064;2022-11-11T11:35:07;17.90;65.31
68746;SHT31;55731;45.456;11.064;2022-11-11T11:38:25;17.97;65.44
68746;SHT31;55731;45.456;11.064;2022-11-11T11:41:38;17.99;65.19
68746;SHT31;55731;45.456;11.064;2022-11-11T11:44:38;18.01;65.08
68746;SHT31;55731;45.456;11.064;2022-11-11T11:47:38;18.00;64.94
68746;SHT31;55731;45.456;11.064;2022-11-11T11:51:19;18.01;64.74
68746;SHT31;55731;45.456;11.064;2022-11-11T11:54:26;17.99;64.90
68746;SHT31;55731;45.456;11.064;2022-11-11T11:57:49;17.99;65.10
68746;SHT31;55731;45.456;11.064;2022-11-11T12:01:03;17.99;65.50
68746;SHT31;55731;45.456;11.064;2022-11-11T12:04:11;18.05;65.53
68746;SHT31;55731;45.456;11.064;2022-11-11T12:07:37;18.15;65.55
68746;SHT31;55731;45.456;11.064;2022-11-11T12:10:52;18.28;65.62
68746;SHT31;55731;45.456;11.064;2022-11-11T12:14:00;18.39;65.72
68746;SHT31;55731;45.456;11.064;2022-11-11T12:17:23;18.45;65.65
68746;SHT31;55731;45.456;11.064;2022-11-11T12:20:26;18.49;65.56
68746;SHT31;55731;45.456;11.064;2022-11-11T12:23:40;18.51;65.41
68746;SHT31;55731;45.456;11.064;2022-11-11T12:26:59;18.50;65.32
68746;SHT31;55731;45.456;11.064;2022-11-11T12:30:06;18.50;65.30
68746;SHT31;55731;45.456;11.064;2022-11-11T12:36:34;18.49;65.38
68746;SHT31;55731;45.456;11.064;2022-11-11T12:39:48;18.47;65.15
68746;SHT31;55731;45.456;11.064;2022-11-11T12:43:11;18.49;65.07
68746;SHT31;55731;45.456;11.064;2022-11-11T12:46:20;18.50;64.92
68746;SHT31;55731;45.456;11.064;2022-11-11T12:52:47;18.47;65.40
68746;SHT31;55731;45.456;11.064;2022-11-11T12:56:13;18.48;65.43
68746;SHT31;55731;45.456;11.064;2022-11-11T12:59:26;18.49;65.06
68746;SHT31;55731;45.456;11.064;2022-11-11T13:02:58;18.50;64.93
68746;SHT31;55731;45.456;11.064;2022-11-11T13:06:16;18.48;64.81
68746;SHT31;55731;45.456;11.064;2022-11-11T13:09:31;18.44;64.86
68746;SHT31;55731;45.456;11.064;2022-11-11T13:12:50;18.38;64.93
68746;SHT31;55731;45.456;11.064;2022-11-11T13:15:59;18.33;65.07
68746;SHT31;55731;45.456;11.064;2022-11-11T13:18:57;18.36;64.57
68746;SHT31;55731;45.456;11.064;2022-11-11T13:22:10;18.36;64.81
68746;SHT31;55731;45.456;11.064;2022-11-11T13:25:14;18.42;64.62
68746;SHT31;55731;45.456;11.064;2022-11-11T13:28:15;18.47;64.17
68746;SHT31;55731;45.456;11.064;2022-11-11T13:31:16;18.52;63.81
68746;SHT31;55731;45.456;11.064;2022-11-11T13:34:19;18.50;63.54
68746;SHT31;55731;45.456;11.064;2022-11-11T13:37:23;18.52;63.46
68746;SHT31;55731;45.456;11.064;2022-11-11T13:40:28;18.53;63.60
68746;SHT31;55731;45.456;11.064;2022-11-11T13:43:41;18.49;63.65
68746;SHT31;55731;45.456;11.064;2022-11-11T13:46:40;18.47;63.77
68746;SHT31;55731;45.456;11.064;2022-11-11T13:49:37;18.47;63.80
68746;SHT31;55731;45.456;11.064;2022-11-11T13:52:43;18.44;63.95
68746;SHT31;55731;45.456;11.064;2022-11-11T13:55:51;18.41;64.04
68746;SHT31;55731;45.456;11.064;2022-11-11T13:58:52;18.34;64.07
68746;SHT31;55731;45.456;11.064;2022-11-11T14:01:49;18.29;64.21
68746;SHT31;55731;45.456;11.064;2022-11-11T14:05:22;18.23;64.04
68746;SHT31;55731;45.456;11.064;2022-11-11T14:11:43;18.18;63.75
68746;SHT31;55731;45.456;11.064;2022-11-11T14:14:53;18.15;63.81
68746;SHT31;55731;45.456;11.064;2022-11-11T14:17:54;18.15;63.73
68746;SHT31;55731;45.456;11.064;2022-11-11T14:20:49;18.10;63.10
68746;SHT31;55731;45.456;11.064;2022-11-11T14:23:44;18.07;63.11
68746;SHT31;55731;45.456;11.064;2022-11-11T14:26:46;18.02;63.47
68746;SHT31;55731;45.456;11.064;2022-11-11T14:29:52;18.00;64.02
68746;SHT31;55731;45.456;11.064;2022-11-11T14:32:49;17.98;64.85
68746;SHT31;55731;45.456;11.064;2022-11-11T14:35:56;17.99;65.22
68746;SHT31;55731;45.456;11.064;2022-11-11T14:39:07;17.99;65.44
68746;SHT31;55731;45.456;11.064;2022-11-11T14:49:06;17.89;66.51
68746;SHT31;55731;45.456;11.064;2022-11-11T14:52:24;17.83;66.99
68746;SHT31;55731;45.456;11.064;2022-11-11T14:55:27;17.74;67.51
68746;SHT31;55731;45.456;11.064;2022-11-11T14:58:31;17.65;68.08
68746;SHT31;55731;45.456;11.064;2022-11-11T15:01:27;17.59;68.50
68746;SHT31;55731;45.456;11.064;2022-11-11T15:04:22;17.54;68.89
68746;SHT31;55731;45.456;11.064;2022-11-11T15:14:21;17.47;70.39
68746;SHT31;55731;45.456;11.064;2022-11-11T15:17:27;17.43;70.65
68746;SHT31;55731;45.456;11.064;2022-11-11T15:20:49;17.41;70.91
68746;SHT31;55731;45.456;11.064;2022-11-11T15:23:59;17.38;71.24
68746;SHT31;55731;45.456;11.064;2022-11-11T15:27:10;17.33;71.54
68746;SHT31;55731;45.456;11.064;2022-11-11T15:30:17;17.33;71.76
68746;SHT31;55731;45.456;11.064;2022-11-11T15:33:27;17.31;71.87
68746;SHT31;55731;45.456;11.064;2022-11-11T15:36:43;17.30;72.01
68746;SHT31;55731;45.456;11.064;2022-11-11T15:39:50;17.24;72.16
68746;SHT31;55731;45.456;11.064;2022-11-11T15:42:47;17.18;72.23
68746;SHT31;55731;45.456;11.064;2022-11-11T15:45:43;17.12;71.97
68746;SHT31;55731;45.456;11.064;2022-11-11T15:48:42;17.00;71.77
68746;SHT31;55731;45.456;11.064;2022-11-11T15:51:38;16.84;71.79
68746;SHT31;55731;45.456;11.064;2022-11-11T15:54:33;16.69;71.99
68746;SHT31;55731;45.456;11.064;2022-11-11T15:57:29;16.59;72.12
68746;SHT31;55731;45.456;11.064;2022-11-11T16:00:28;16.52;72.26
68746;SHT31;55731;45.456;11.064;2022-11-11T16:03:25;16.46;72.42
68746;SHT31;55731;45.456;11.064;2022-11-11T16:06:28;16.43;72.46
68746;SHT31;55731;45.456;11.064;2022-11-11T16:09:27;16.38;72.50
68746;SHT31;55731;45.456;11.064;2022-11-11T16:12:27;16.27;72.77
68746;SHT31;55731;45.456;11.064;2022-11-11T16:15:36;16.11;73.09
68746;SHT31;55731;45.456;11.064;2022-11-11T16:18:38;16.00;73.32
68746;SHT31;55731;45.456;11.064;2022-11-11T16:21:38;15.94;73.30
68746;SHT31;55731;45.456;11.064;2022-11-11T16:24:40;15.88;73.30
68746;SHT31;55731;45.456;11.064;2022-11-11T16:27:35;15.83;73.25
68746;SHT31;55731;45.456;11.064;2022-11-11T16:30:33;15.74;73.30
68746;SHT31;55731;45.456;11.064;2022-11-11T16:33:33;15.66;73.41
68746;SHT31;55731;45.456;11.064;2022-11-11T16:36:28;15.57;73.50
68746;SHT31;55731;45.456;11.064;2022-11-11T16:39:24;15.52;73.55
68746;SHT31;55731;45.456;11.064;2022-11-11T16:42:21;15.51;73.53
68746;SHT31;55731;45.456;11.064;2022-11-11T16:45:20;15.47;73.58
68746;SHT31;55731;45.456;11.064;2022-11-11T16:48:34;15.44;73.50
68746;SHT31;55731;45.456;11.064;2022-11-11T16:51:38;15.36;73.58
68746;SHT31;55731;45.456;11.064;2022-11-11T16:54:36;15.27;73.70
68746;SHT31;55731;45.456;11.064;2022-11-11T16:57:42;15.21;73.72
68746;SHT31;55731;45.456;11.064;2022-11-11T17:00:38;15.18;73.79
68746;SHT31;55731;45.456;11.064;2022-11-11T17:03:37;15.15;73.83
68746;SHT31;55731;45.456;11.064;2022-11-11T17:06:48;15.12;73.83
68746;SHT31;55731;45.456;11.064;2022-11-11T17:09:48;15.11;73.80
68746;SHT31;55731;45.456;11.064;2022-11-11T17:12:44;15.08;73.80
68746;SHT31;55731;45.456;11.064;2022-11-11T17:15:38;15.03;73.86
68746;SHT31;55731;45.456;11.064;2022-11-11T17:18:33;14.95;74.01
68746;SHT31;55731;45.456;11.064;2022-11-11T17:21:28;14.88;74.01
68746;SHT31;55731;45.456;11.064;2022-11-11T17:24:24;14.86;74.11
68746;SHT31;55731;45.456;11.064;2022-11-11T17:27:21;14.84;74.08
68746;SHT31;55731;45.456;11.064;2022-11-11T17:30:21;14.79;74.13
68746;SHT31;55731;45.456;11.064;2022-11-11T17:33:15;14.75;74.19
68746;SHT31;55731;45.456;11.064;2022-11-11T17:36:14;14.68;74.32
68746;SHT31;55731;45.456;11.064;2022-11-11T17:39:08;14.67;74.32
68746;SHT31;55731;45.456;11.064;2022-11-11T17:42:04;14.66;74.34
68746;SHT31;55731;45.456;11.064;2022-11-11T17:45:00;14.63;74.43
68746;SHT31;55731;45.456;11.064;2022-11-11T17:47:59;14.60;74.30
68746;SHT31;55731;45.456;11.064;2022-11-11T17:50:55;14.55;74.31
68746;SHT31;55731;45.456;11.064;2022-11-11T17:53:54;14.49;74.39
68746;SHT31;55731;45.456;11.064;2022-11-11T17:56:48;14.45;74.82
68746;SHT31;55731;45.456;11.064;2022-11-11T17:59:44;14.43;74.52
68746;SHT31;55731;45.456;11.064;2022-11-11T18:02:39;14.42;74.50
68746;SHT31;55731;45.456;11.064;2022-11-11T18:05:34;14.43;74.50
68746;SHT31;55731;45.456;11.064;2022-11-11T18:08:29;14.43;74.54
68746;SHT31;55731;45.456;11.064;2022-11-11T18:11:24;14.38;74.59
68746;SHT31;55731;45.456;11.064;2022-11-11T18:14:18;14.33;74.61
68746;SHT31;55731;45.456;11.064;2022-11-11T18:17:13;14.29;74.70
68746;SHT31;55731;45.456;11.064;2022-11-11T18:20:10;14.28;74.85
68746;SHT31;55731;45.456;11.064;2022-11-11T18:23:07;14.29;74.64
68746;SHT31;55731;45.456;11.064;2022-11-11T18:26:01;14.26;74.53
68746;SHT31;55731;45.456;11.064;2022-11-11T18:28:57;14.22;74.64
68746;SHT31;55731;45.456;11.064;2022-11-11T18:31:54;14.17;74.80
68746;SHT31;55731;45.456;11.064;2022-11-11T18:34:50;14.09;74.94
68746;SHT31;55731;45.456;11.064;2022-11-11T18:37:44;14.02;74.93
68746;SHT31;55731;45.456;11.064;2022-11-11T18:40:40;13.99;74.92
68746;SHT31;55731;45.456;11.064;2022-11-11T18:43:35;13.98;74.88
68746;SHT31;55731;45.456;11.064;2022-11-11T18:46:33;13.96;74.88
68746;SHT31;55731;45.456;11.064;2022-11-11T18:49:29;13.95;74.90
68746;SHT31;55731;45.456;11.064;2022-11-11T18:52:24;13.95;74.90
68746;SHT31;55731;45.456;11.064;2022-11-11T18:55:19;13.92;74.81
68746;SHT31;55731;45.456;11.064;2022-11-11T18:58:14;13.87;74.79
68746;SHT31;55731;45.456;11.064;2022-11-11T19:01:10;13.85;74.74
68746;SHT31;55731;45.456;11.064;2022-11-11T19:04:10;13.86;74.67
68746;SHT31;55731;45.456;11.064;2022-11-11T19:07:06;13.88;74.44
68746;SHT31;55731;45.456;11.064;2022-11-11T19:10:00;13.88;74.24
68746;SHT31;55731;45.456;11.064;2022-11-11T19:12:59;13.88;74.12
68746;SHT31;55731;45.456;11.064;2022-11-11T19:15:54;13.84;74.00
68746;SHT31;55731;45.456;11.064;2022-11-11T19:18:55;13.84;73.87
68746;SHT31;55731;45.456;11.064;2022-11-11T19:21:52;13.80;73.85
68746;SHT31;55731;45.456;11.064;2022-11-11T19:24:47;13.75;73.91
68746;SHT31;55731;45.456;11.064;2022-11-11T19:27:42;13.73;73.91
68746;SHT31;55731;45.456;11.064;2022-11-11T19:30:40;13.73;73.82
68746;SHT31;55731;45.456;11.064;2022-11-11T19:33:35;13.71;73.81
68746;SHT31;55731;45.456;11.064;2022-11-11T19:36:35;13.69;74.08
68746;SHT31;55731;45.456;11.064;2022-11-11T19:39:30;13.69;74.26
68746;SHT31;55731;45.456;11.064;2022-11-11T19:42:25;13.71;73.94
68746;SHT31;55731;45.456;11.064;2022-11-11T19:45:20;13.72;73.74
68746;SHT31;55731;45.456;11.064;2022-11-11T19:48:22;13.74;73.55
68746;SHT31;55731;45.456;11.064;2022-11-11T19:51:18;13.74;73.33
68746;SHT31;55731;45.456;11.064;2022-11-11T19:54:14;13.70;73.11
68746;SHT31;55731;45.456;11.064;2022-11-11T19:57:10;13.64;73.01
68746;SHT31;55731;45.456;11.064;2022-11-11T20:00:07;13.59;72.99
68746;SHT31;55731;45.456;11.064;2022-11-11T20:03:06;13.52;72.83
68746;SHT31;55731;45.456;11.064;2022-11-11T20:06:01;13.48;72.86
68746;SHT31;55731;45.456;11.064;2022-11-11T20:09:08;13.47;72.58
68746;SHT31;55731;45.456;11.064;2022-11-11T20:12:03;13.46;72.48
68746;SHT31;55731;45.456;11.064;2022-11-11T20:14:59;13.48;72.39
68746;SHT31;55731;45.456;11.064;2022-11-11T20:17:58;13.49;72.19
68746;SHT31;55731;45.456;11.064;2022-11-11T20:20:57;13.48;71.94
68746;SHT31;55731;45.456;11.064;2022-11-11T20:23:53;13.46;71.76
68746;SHT31;55731;45.456;11.064;2022-11-11T20:26:48;13.39;71.61
68746;SHT31;55731;45.456;11.064;2022-11-11T20:29:44;13.32;71.63
68746;SHT31;55731;45.456;11.064;2022-11-11T20:32:39;13.27;71.51
68746;SHT31;55731;45.456;11.064;2022-11-11T20:35:35;13.27;71.55
68746;SHT31;55731;45.456;11.064;2022-11-11T20:38:31;13.32;71.54